Time;durP1;ratioP1;P1;durP2;ratioP2;P2;SDS_P1;SDS_P2;PMS_P1;PMS_P2;Temp;Humidity;BMP_temperature;BMP_pressure;BME280_temperature;BME280_humidity;BME280_pressure;Samples;Min_cycle;Max_cycle;Signal;HPM_P1;HPM_P2
2024/02/24 00:00:05;;;;;;;;;;;;;;;;;;5075874;28;19912;-70
2024/02/24 00:02:31;;;;;;;;;;;;;;;;;;5093740;28;19909;-71
2024/02/24 00:04:57;;;;;;;;;;;;;;;;;;5093980;28;19953;-70
2024/02/24 00:07:23;;;;;;;;;;;;;;;;;;5093664;28;19909;-71
2024/02/24 00:09:49;;;;;;;;;;;;;;;;;;5075471;28;19908;-70
2024/02/24 00:12:15;;;;;;;;;;;;;;;;;;5094029;28;19908;-70
2024/02/24 00:14:41;;;;;;;;;;;;;;;;;;5093800;28;19995;-70
2024/02/24 00:17:07;;;;;;;;;;;;;;;;;;5093664;28;19908;-70
2024/02/24 00:19:33;;;;;;;;;;;;;;;;;;5075677;28;20352;-70
2024/02/24 00:21:58;;;;;;;;;;;;;;;;;;5093731;28;19908;-70
2024/02/24 00:24:24;;;;;;;;;;;;;;;;;;5093339;28;19918;-70
2024/02/24 00:26:50;;;;;;;;;;;;;;;;;;5075625;28;19908;-70
2024/02/24 00:29:16;;;;;;;;;;;;;;;;;;5075950;28;19920;-70
2024/02/24 00:31:43;;;;;;;;;;;;;;;;;;5097363;28;19915;-70
2024/02/24 00:34:09;;;;;;;;;;;;;;;;;;5097816;28;20367;-70
2024/02/24 00:36:35;;;;;;;;;;;;;;;;;;5079957;28;19918;-70
2024/02/24 00:39:01;;;;;;;;;;;;;;;;;;5097465;28;19908;-70
2024/02/24 00:41:27;;;;;;;;;;;;;;;;;;5097805;28;19908;-70
2024/02/24 00:43:53;;;;;;;;;;;;;;;;;;5097539;28;19916;-70
2024/02/24 00:46:18;;;;;;;;;;;;;;;;;;5097166;28;19908;-70
2024/02/24 00:48:44;;;;;;;;;;;;;;;;;;5079260;28;19920;-71
2024/02/24 00:51:10;;;;;;;;;;;;;;;;;;5079195;28;20482;-71
2024/02/24 00:53:36;;;;;;;;;;;;;;;;;;5097008;28;19908;-71
2024/02/24 00:56:02;;;;;;;;;;;;;;;;;;5079210;28;19962;-70
2024/02/24 00:58:28;;;;;;;;;;;;;;;;;;5097721;28;19991;-70
2024/02/24 01:00:54;;;;;;;;;;;;;;;;;;5096821;28;20291;-70
2024/02/24 01:03:20;;;;;;;;;;;;;;;;;;5097195;28;19969;-70
2024/02/24 01:05:46;;;;;;;;;;;;;;;;;;5096723;28;19908;-70
2024/02/24 01:08:12;;;;;;;;;;;;;;;;;;5096788;28;19927;-70
2024/02/24 01:10:38;;;;;;;;;;;;;;;;;;5097043;28;19908;-70
2024/02/24 01:13:04;;;;;;;;;;;;;;;;;;5096574;28;20352;-70
2024/02/24 01:15:30;;;;;;;;;;;;;;;;;;5097007;28;19912;-70
2024/02/24 01:17:56;;;;;;;;;;;;;;;;;;5097072;28;19912;-70
2024/02/24 01:20:22;;;;;;;;;;;;;;;;;;5096642;28;20382;-70
2024/02/24 01:22:53;;;;;;;;;;;;;;;;;;5078746;28;20269;-70
2024/02/24 01:25:19;;;;;;;;;;;;;;;;;;5096870;28;19908;-70
2024/02/24 01:27:45;;;;;;;;;;;;;;;;;;5096551;28;19916;-70
2024/02/24 01:30:11;;;;;;;;;;;;;;;;;;5078546;28;19908;-70
2024/02/24 01:32:37;;;;;;;;;;;;;;;;;;5096679;28;19908;-71
2024/02/24 01:35:03;;;;;;;;;;;;;;;;;;5096282;28;19962;-71
2024/02/24 01:37:29;;;;;;;;;;;;;;;;;;5078344;28;19915;-71
2024/02/24 01:39:55;;;;;;;;;;;;;;;;;;5096128;28;19908;-70
2024/02/24 01:42:21;;;;;;;;;;;;;;;;;;5095996;28;19919;-70
2024/02/24 01:44:47;;;;;;;;;;;;;;;;;;5096387;28;20053;-70
2024/02/24 01:47:13;;;;;;;;;;;;;;;;;;5096636;28;19908;-71
2024/02/24 01:49:39;;;;;;;;;;;;;;;;;;5096034;28;20368;-70
2024/02/24 01:52:05;;;;;;;;;;;;;;;;;;5096221;28;19920;-70
2024/02/24 01:54:31;;;;;;;;;;;;;;;;;;5096480;28;19943;-70
2024/02/24 01:56:57;;;;;;;;;;;;;;;;;;5095783;28;19909;-70
2024/02/24 01:59:23;;;;;;;;;;;;;;;;;;5096139;28;19911;-70
2024/02/24 02:01:49;;;;;;;;;;;;;;;;;;5077880;28;20364;-70
2024/02/24 02:04:15;;;;;;;;;;;;;;;;;;5095668;28;20270;-70
2024/02/24 02:06:41;;;;;;;;;;;;;;;;;;5095962;28;19966;-70
2024/02/24 02:09:07;;;;;;;;;;;;;;;;;;5095379;28;19920;-70
2024/02/24 02:11:33;;;;;;;;;;;;;;;;;;5095854;28;19987;-70
2024/02/24 02:13:59;;;;;;;;;;;;;;;;;;5095838;28;20320;-70
2024/02/24 02:16:25;;;;;;;;;;;;;;;;;;5095450;28;20375;-70
2024/02/24 02:18:51;;;;;;;;;;;;;;;;;;5096626;28;19915;-69
2024/02/24 02:21:16;;;;;;;;;;;;;;;;;;5077528;28;19908;-70
2024/02/24 02:23:42;;;;;;;;;;;;;;;;;;5095343;28;20367;-70
2024/02/24 02:26:08;;;;;;;;;;;;;;;;;;5095524;28;19908;-70
2024/02/24 02:28:34;;;;;;;;;;;;;;;;;;5095475;28;19920;-70
2024/02/24 02:31:00;;;;;;;;;;;;;;;;;;5095227;28;19914;-70
2024/02/24 02:33:26;;;;;;;;;;;;;;;;;;5077303;28;19908;-70
2024/02/24 02:35:52;;;;;;;;;;;;;;;;;;5095333;28;20013;-70
2024/02/24 02:38:18;;;;;;;;;;;;;;;;;;5095044;28;19908;-70
2024/02/24 02:40:45;;;;;;;;;;;;;;;;;;5095284;28;19912;-70
2024/02/24 02:43:11;;;;;;;;;;;;;;;;;;5095310;28;20368;-70
2024/02/24 02:45:36;;;;;;;;;;;;;;;;;;5094830;28;19999;-70
2024/02/24 02:48:03;;;;;;;;;;;;;;;;;;5095092;28;19964;-70
2024/02/24 02:50:28;;;;;;;;;;;;;;;;;;5095385;28;19919;-69
2024/02/24 02:52:54;;;;;;;;;;;;;;;;;;5075674;28;19912;-70
2024/02/24 02:55:20;;;;;;;;;;;;;;;;;;5076737;28;19912;-70
2024/02/24 02:57:46;;;;;;;;;;;;;;;;;;5076845;28;19915;-70
2024/02/24 03:00:12;;;;;;;;;;;;;;;;;;5094564;28;20381;-70
2024/02/24 03:02:38;;;;;;;;;;;;;;;;;;5094902;28;19908;-72
2024/02/24 03:05:04;;;;;;;;;;;;;;;;;;5094843;28;19950;-70
2024/02/24 03:07:30;;;;;;;;;;;;;;;;;;5094142;28;19938;-69
2024/02/24 03:09:56;;;;;;;;;;;;;;;;;;5095109;28;19915;-69
2024/02/24 03:12:22;;;;;;;;;;;;;;;;;;5094304;28;19908;-70
2024/02/24 03:14:48;;;;;;;;;;;;;;;;;;5076410;28;19908;-70
2024/02/24 03:17:14;;;;;;;;;;;;;;;;;;5094604;28;19935;-70
2024/02/24 03:19:40;;;;;;;;;;;;;;;;;;5094140;28;19912;-69
2024/02/24 03:22:06;;;;;;;;;;;;;;;;;;5076363;28;19944;-69
2024/02/24 03:24:32;;;;;;;;;;;;;;;;;;5076351;28;20383;-71
2024/02/24 03:26:58;;;;;;;;;;;;;;;;;;5094096;28;20292;-70
2024/02/24 03:29:24;;;;;;;;;;;;;;;;;;5076249;28;19923;-70
2024/02/24 03:31:50;;;;;;;;;;;;;;;;;;5094400;28;19908;-71
2024/02/24 03:34:16;;;;;;;;;;;;;;;;;;5075804;28;19915;-70
2024/02/24 03:36:42;;;;;;;;;;;;;;;;;;5094345;28;19915;-71
2024/02/24 03:39:08;;;;;;;;;;;;;;;;;;5094411;28;19908;-71
2024/02/24 03:41:34;;;;;;;;;;;;;;;;;;5094058;28;19922;-70
2024/02/24 03:44:00;;;;;;;;;;;;;;;;;;5094254;28;20271;-70
2024/02/24 03:46:25;;;;;;;;;;;;;;;;;;5094128;28;19915;-70
2024/02/24 03:48:51;;;;;;;;;;;;;;;;;;5093715;28;20002;-70
2024/02/24 03:51:17;;;;;;;;;;;;;;;;;;5075898;28;20384;-70
2024/02/24 03:53:43;;;;;;;;;;;;;;;;;;5094029;28;19962;-70
2024/02/24 03:56:09;;;;;;;;;;;;;;;;;;5093649;28;19933;-70
2024/02/24 03:58:35;;;;;;;;;;;;;;;;;;5094034;28;20372;-70
2024/02/24 04:01:01;;;;;;;;;;;;;;;;;;5093950;28;20291;-70
2024/02/24 04:03:27;;;;;;;;;;;;;;;;;;5093468;28;19908;-70
2024/02/24 04:05:53;;;;;;;;;;;;;;;;;;5093896;28;19934;-70
2024/02/24 04:08:19;;;;;;;;;;;;;;;;;;5075396;28;19924;-70
2024/02/24 04:10:45;;;;;;;;;;;;;;;;;;5093560;28;20269;-70
2024/02/24 04:13:11;;;;;;;;;;;;;;;;;;5094401;28;19931;-70
2024/02/24 04:15:37;;;;;;;;;;;;;;;;;;5093551;28;20279;-71
2024/02/24 04:18:03;;;;;;;;;;;;;;;;;;5093988;28;19912;-70
2024/02/24 04:20:29;;;;;;;;;;;;;;;;;;5094135;28;20319;-70
2024/02/24 04:22:55;;;;;;;;;;;;;;;;;;5093796;28;19908;-70
2024/02/24 04:25:21;;;;;;;;;;;;;;;;;;5093715;28;20355;-70
2024/02/24 04:27:47;;;;;;;;;;;;;;;;;;5093611;28;20279;-71
2024/02/24 04:30:13;;;;;;;;;;;;;;;;;;5093249;28;19913;-70
2024/02/24 04:32:39;;;;;;;;;;;;;;;;;;5093616;28;19912;-70
2024/02/24 04:35:05;;;;;;;;;;;;;;;;;;5075473;28;19908;-70
2024/02/24 04:37:31;;;;;;;;;;;;;;;;;;5093136;28;19953;-71
2024/02/24 04:39:57;;;;;;;;;;;;;;;;;;5093590;28;19912;-70
2024/02/24 04:42:24;;;;;;;;;;;;;;;;;;5093565;28;19908;-70
2024/02/24 04:44:50;;;;;;;;;;;;;;;;;;5093151;28;19989;-70
2024/02/24 04:47:16;;;;;;;;;;;;;;;;;;5093487;28;19951;-70
2024/02/24 04:49:42;;;;;;;;;;;;;;;;;;5093465;28;19923;-70
2024/02/24 04:52:08;;;;;;;;;;;;;;;;;;5093076;28;19909;-70
2024/02/24 04:54:34;;;;;;;;;;;;;;;;;;5093417;28;19950;-70
2024/02/24 04:57:00;;;;;;;;;;;;;;;;;;5093549;28;19908;-70
2024/02/24 04:59:26;;;;;;;;;;;;;;;;;;5093082;28;19909;-70
2024/02/24 05:01:52;;;;;;;;;;;;;;;;;;5093316;28;19915;-70
2024/02/24 05:04:18;;;;;;;;;;;;;;;;;;5093685;28;19931;-70
2024/02/24 05:06:44;;;;;;;;;;;;;;;;;;5092969;28;19913;-70
2024/02/24 05:09:11;;;;;;;;;;;;;;;;;;5093083;28;20444;-71
2024/02/24 05:11:37;;;;;;;;;;;;;;;;;;5093298;28;19931;-70
2024/02/24 05:14:04;;;;;;;;;;;;;;;;;;5092899;28;19908;-70
2024/02/24 05:16:32;;;;;;;;;;;;;;;;;;5077500;28;19908;-71
2024/02/24 05:18:58;;;;;;;;;;;;;;;;;;5096564;28;20007;-71
2024/02/24 05:21:24;;;;;;;;;;;;;;;;;;5096890;28;19998;-71
2024/02/24 05:23:50;;;;;;;;;;;;;;;;;;5096846;28;19934;-70
2024/02/24 05:26:16;;;;;;;;;;;;;;;;;;5096569;28;19922;-71
2024/02/24 05:28:42;;;;;;;;;;;;;;;;;;5096996;28;20368;-71
2024/02/24 05:31:08;;;;;;;;;;;;;;;;;;5097310;28;20378;-71
2024/02/24 05:33:34;;;;;;;;;;;;;;;;;;5077999;28;19947;-71
2024/02/24 05:36:00;;;;;;;;;;;;;;;;;;5096623;28;19908;-71
2024/02/24 05:38:26;;;;;;;;;;;;;;;;;;5096591;28;19912;-71
2024/02/24 05:40:52;;;;;;;;;;;;;;;;;;5096361;28;19908;-70
2024/02/24 05:43:18;;;;;;;;;;;;;;;;;;5096672;28;19954;-71
2024/02/24 05:45:44;;;;;;;;;;;;;;;;;;5096306;28;19936;-70
2024/02/24 05:48:10;;;;;;;;;;;;;;;;;;5096037;28;19923;-71
2024/02/24 05:50:36;;;;;;;;;;;;;;;;;;5096275;28;19912;-71
2024/02/24 05:53:02;;;;;;;;;;;;;;;;;;5096313;28;19908;-70
2024/02/24 05:55:28;;;;;;;;;;;;;;;;;;5095892;28;19915;-70
2024/02/24 05:57:54;;;;;;;;;;;;;;;;;;5096231;28;19909;-71
2024/02/24 06:00:19;;;;;;;;;;;;;;;;;;5096107;28;19908;-70
2024/02/24 06:02:45;;;;;;;;;;;;;;;;;;5095862;28;20352;-70
2024/02/24 06:05:11;;;;;;;;;;;;;;;;;;5095978;28;19908;-70
2024/02/24 06:07:38;;;;;;;;;;;;;;;;;;5095780;28;20379;-70
2024/02/24 06:10:04;;;;;;;;;;;;;;;;;;5095687;28;19912;-70
2024/02/24 06:12:30;;;;;;;;;;;;;;;;;;5095902;28;20303;-70
2024/02/24 06:14:56;;;;;;;;;;;;;;;;;;5095767;28;19914;-69
2024/02/24 06:17:22;;;;;;;;;;;;;;;;;;5077332;28;19908;-70
2024/02/24 06:19:48;;;;;;;;;;;;;;;;;;5095766;28;19908;-70
2024/02/24 06:22:14;;;;;;;;;;;;;;;;;;5095282;28;20046;-70
2024/02/24 06:24:40;;;;;;;;;;;;;;;;;;5095638;28;19908;-70
2024/02/24 06:27:07;;;;;;;;;;;;;;;;;;5095820;28;20322;-70
2024/02/24 06:29:32;;;;;;;;;;;;;;;;;;5095104;28;19958;-71
2024/02/24 06:31:58;;;;;;;;;;;;;;;;;;5095450;28;19909;-71
2024/02/24 06:34:24;;;;;;;;;;;;;;;;;;5095489;28;19919;-71
2024/02/24 06:36:50;;;;;;;;;;;;;;;;;;5094901;28;19999;-70
2024/02/24 06:39:16;;;;;;;;;;;;;;;;;;5095468;28;19916;-70
2024/02/24 06:41:42;;;;;;;;;;;;;;;;;;5095351;28;19908;-70
2024/02/24 06:44:08;;;;;;;;;;;;;;;;;;5095194;28;19908;-71
2024/02/24 06:46:34;;;;;;;;;;;;;;;;;;5095791;28;20356;-71
2024/02/24 06:49:00;;;;;;;;;;;;;;;;;;5095160;28;20431;-71
2024/02/24 06:51:26;;;;;;;;;;;;;;;;;;5095239;28;20283;-69
2024/02/24 06:53:54;;;;;;;;;;;;;;;;;;5095095;28;20045;-70
2024/02/24 06:56:20;;;;;;;;;;;;;;;;;;5095025;28;19908;-69
2024/02/24 06:58:46;;;;;;;;;;;;;;;;;;5094566;28;19915;-69
2024/02/24 07:01:12;;;;;;;;;;;;;;;;;;5094953;28;19908;-70
2024/02/24 07:03:38;;;;;;;;;;;;;;;;;;5095111;28;19908;-70
2024/02/24 07:06:04;;;;;;;;;;;;;;;;;;5094491;28;19920;-70
2024/02/24 07:08:30;;;;;;;;;;;;;;;;;;5094694;28;19920;-70
2024/02/24 07:10:56;;;;;;;;;;;;;;;;;;5094744;28;19908;-70
2024/02/24 07:13:22;;;;;;;;;;;;;;;;;;5076060;28;19908;-70
2024/02/24 07:15:48;;;;;;;;;;;;;;;;;;5094711;28;20359;-70
2024/02/24 07:18:14;;;;;;;;;;;;;;;;;;5076835;28;19912;-70
2024/02/24 07:20:40;;;;;;;;;;;;;;;;;;5094213;28;19909;-71
2024/02/24 07:23:06;;;;;;;;;;;;;;;;;;5094548;28;19916;-71
2024/02/24 07:25:32;;;;;;;;;;;;;;;;;;5075971;28;19943;-71
2024/02/24 07:27:58;;;;;;;;;;;;;;;;;;5094415;28;20363;-70
2024/02/24 07:30:24;;;;;;;;;;;;;;;;;;5094492;28;19912;-72
2024/02/24 07:32:50;;;;;;;;;;;;;;;;;;5094028;28;19961;-72
2024/02/24 07:35:16;;;;;;;;;;;;;;;;;;5094392;28;20269;-71
2024/02/24 07:37:42;;;;;;;;;;;;;;;;;;5075961;28;20284;-71
2024/02/24 07:40:08;;;;;;;;;;;;;;;;;;5093621;28;20009;-70
2024/02/24 07:42:34;;;;;;;;;;;;;;;;;;5094314;28;19951;-70
2024/02/24 07:45:00;;;;;;;;;;;;;;;;;;5094268;28;19912;-70
2024/02/24 07:47:26;;;;;;;;;;;;;;;;;;5094168;28;20385;-70
2024/02/24 07:49:52;;;;;;;;;;;;;;;;;;5075902;28;20262;-70
2024/02/24 07:52:18;;;;;;;;;;;;;;;;;;5075981;28;19908;-69
2024/02/24 07:54:44;;;;;;;;;;;;;;;;;;5075693;28;19912;-72
2024/02/24 07:57:10;;;;;;;;;;;;;;;;;;5094135;28;19912;-70
2024/02/24 07:59:36;;;;;;;;;;;;;;;;;;5094085;28;19908;-71
2024/02/24 08:02:02;;;;;;;;;;;;;;;;;;5093732;28;20421;-70
2024/02/24 08:04:28;;;;;;;;;;;;;;;;;;5093921;28;20284;-71
2024/02/24 08:06:54;;;;;;;;;;;;;;;;;;5075798;28;19919;-71
2024/02/24 08:09:20;;;;;;;;;;;;;;;;;;5093322;28;19946;-70
2024/02/24 08:11:46;;;;;;;;;;;;;;;;;;5075782;28;19908;-71
2024/02/24 08:14:12;;;;;;;;;;;;;;;;;;5093826;28;19994;-71
2024/02/24 08:16:39;;;;;;;;;;;;;;;;;;5093647;28;19912;-71
2024/02/24 08:19:06;;;;;;;;;;;;;;;;;;5093847;28;19947;-70
2024/02/24 08:21:36;;;;;;;;;;;;;;;;;;5093867;28;19974;-70
2024/02/24 08:24:06;;;;;;;;;;;;;;;;;;5093384;28;19961;-70
2024/02/24 08:26:33;;;;;;;;;;;;;;;;;;5075614;28;20276;-71
2024/02/24 08:28:59;;;;;;;;;;;;;;;;;;5093418;28;20269;-70
2024/02/24 08:31:25;;;;;;;;;;;;;;;;;;5093755;28;19918;-71
2024/02/24 08:33:51;;;;;;;;;;;;;;;;;;5075587;28;20283;-71
2024/02/24 08:36:16;;;;;;;;;;;;;;;;;;5093294;28;19912;-71
2024/02/24 08:38:42;;;;;;;;;;;;;;;;;;5093644;28;19908;-70
2024/02/24 08:41:08;;;;;;;;;;;;;;;;;;5093695;28;19908;-70
2024/02/24 08:43:34;;;;;;;;;;;;;;;;;;5075190;28;20260;-70
2024/02/24 08:46:02;;;;;;;;;;;;;;;;;;5093595;28;20132;-71
2024/02/24 08:48:28;;;;;;;;;;;;;;;;;;5093479;28;20356;-70
2024/02/24 08:50:54;;;;;;;;;;;;;;;;;;5094932;28;19919;-72
2024/02/24 08:53:20;;;;;;;;;;;;;;;;;;5097434;28;20379;-70
2024/02/24 08:55:46;;;;;;;;;;;;;;;;;;5097840;28;20352;-71
2024/02/24 08:58:12;;;;;;;;;;;;;;;;;;5096941;28;20287;-71
2024/02/24 09:00:38;;;;;;;;;;;;;;;;;;5097342;28;19915;-71
2024/02/24 09:03:04;;;;;;;;;;;;;;;;;;5097470;28;19951;-71
2024/02/24 09:05:30;;;;;;;;;;;;;;;;;;5097033;28;19909;-70
2024/02/24 09:07:56;;;;;;;;;;;;;;;;;;5096925;28;19924;-70
2024/02/24 09:10:22;;;;;;;;;;;;;;;;;;5097103;28;19908;-70
2024/02/24 09:12:48;;;;;;;;;;;;;;;;;;5097058;28;20291;-70
2024/02/24 09:15:14;;;;;;;;;;;;;;;;;;5097005;28;19912;-70
2024/02/24 09:17:40;;;;;;;;;;;;;;;;;;5096995;28;19915;-71
2024/02/24 09:20:08;;;;;;;;;;;;;;;;;;5096574;28;19912;-70
2024/02/24 09:22:34;;;;;;;;;;;;;;;;;;5096864;28;20249;-71
2024/02/24 09:25:00;;;;;;;;;;;;;;;;;;5097016;28;19916;-70
2024/02/24 09:27:26;;;;;;;;;;;;;;;;;;5096383;28;19947;-71
2024/02/24 09:29:52;;;;;;;;;;;;;;;;;;5096774;28;20364;-71
2024/02/24 09:32:18;;;;;;;;;;;;;;;;;;5078144;28;20003;-71
2024/02/24 09:34:44;;;;;;;;;;;;;;;;;;5096632;28;19911;-72
2024/02/24 09:37:10;;;;;;;;;;;;;;;;;;5096625;28;20273;-71
2024/02/24 09:39:36;;;;;;;;;;;;;;;;;;5077991;28;20355;-71
2024/02/24 09:42:02;;;;;;;;;;;;;;;;;;5096868;28;19909;-71
2024/02/24 09:44:29;;;;;;;;;;;;;;;;;;5096408;28;20360;-71
2024/02/24 09:46:55;;;;;;;;;;;;;;;;;;5095980;28;19969;-70
2024/02/24 09:49:21;;;;;;;;;;;;;;;;;;5096341;28;20406;-70
2024/02/24 09:51:49;;;;;;;;;;;;;;;;;;5096249;28;20275;-71
2024/02/24 09:54:14;;;;;;;;;;;;;;;;;;5095911;28;19912;-71
2024/02/24 09:56:40;;;;;;;;;;;;;;;;;;5096217;28;20292;-71
2024/02/24 09:59:06;;;;;;;;;;;;;;;;;;5096221;28;19908;-71
2024/02/24 10:01:32;;;;;;;;;;;;;;;;;;5095251;28;19908;-71
2024/02/24 10:03:58;;;;;;;;;;;;;;;;;;5077956;28;19915;-71
2024/02/24 10:06:24;;;;;;;;;;;;;;;;;;5096147;28;19947;-71
2024/02/24 10:08:50;;;;;;;;;;;;;;;;;;5095456;28;20028;-71
2024/02/24 10:11:16;;;;;;;;;;;;;;;;;;5096277;28;19909;-71
2024/02/24 10:13:42;;;;;;;;;;;;;;;;;;5095844;28;19947;-72
2024/02/24 10:16:08;;;;;;;;;;;;;;;;;;5095550;28;19954;-71
2024/02/24 10:18:34;;;;;;;;;;;;;;;;;;5095763;28;19912;-71
2024/02/24 10:21:00;;;;;;;;;;;;;;;;;;5077604;28;19914;-70
2024/02/24 10:23:26;;;;;;;;;;;;;;;;;;5095360;28;19969;-71
2024/02/24 10:25:57;;;;;;;;;;;;;;;;;;5095609;28;19908;-71
2024/02/24 10:28:25;;;;;;;;;;;;;;;;;;5095484;28;20007;-71
2024/02/24 10:30:51;;;;;;;;;;;;;;;;;;5095618;28;19935;-71
2024/02/24 10:33:16;;;;;;;;;;;;;;;;;;5095522;28;20367;-72
2024/02/24 10:35:42;;;;;;;;;;;;;;;;;;5095377;28;20282;-71
2024/02/24 10:38:08;;;;;;;;;;;;;;;;;;5095401;28;20263;-71
2024/02/24 10:40:34;;;;;;;;;;;;;;;;;;5095393;28;20291;-71
2024/02/24 10:43:00;;;;;;;;;;;;;;;;;;5095042;28;19908;-71
2024/02/24 10:45:28;;;;;;;;;;;;;;;;;;5095306;28;19915;-71
2024/02/24 10:47:54;;;;;;;;;;;;;;;;;;5095108;28;19912;-71
2024/02/24 10:50:20;;;;;;;;;;;;;;;;;;5094935;28;19935;-71
2024/02/24 10:52:46;;;;;;;;;;;;;;;;;;5095218;28;20318;-71
2024/02/24 10:55:12;;;;;;;;;;;;;;;;;;5095255;28;19908;-71
2024/02/24 10:57:38;;;;;;;;;;;;;;;;;;5094617;28;19908;-71
2024/02/24 11:00:04;;;;;;;;;;;;;;;;;;5095000;28;19912;-71
2024/02/24 11:02:30;;;;;;;;;;;;;;;;;;5095066;28;20004;-71
2024/02/24 11:04:56;;;;;;;;;;;;;;;;;;5094502;28;19908;-71
2024/02/24 11:07:23;;;;;;;;;;;;;;;;;;5094690;28;19955;-72
2024/02/24 11:09:49;;;;;;;;;;;;;;;;;;5094765;28;20317;-71
2024/02/24 11:12:16;;;;;;;;;;;;;;;;;;5094560;28;19923;-72
2024/02/24 11:14:42;;;;;;;;;;;;;;;;;;5094277;28;19912;-72
2024/02/24 11:17:07;;;;;;;;;;;;;;;;;;5094983;28;19953;-70
2024/02/24 11:19:33;;;;;;;;;;;;;;;;;;5094401;28;20272;-71
2024/02/24 11:22:03;;;;;;;;;;;;;;;;;;5076742;28;20253;-71
2024/02/24 11:24:29;;;;;;;;;;;;;;;;;;5076737;28;20322;-72
2024/02/24 11:26:55;;;;;;;;;;;;;;;;;;5075952;28;19915;-71
2024/02/24 11:31:03;;;;;;;;;;;;;;;;;;5091762;27;19922;-71
2024/02/24 11:41:46;;;;;;;;;;;;;;;;;;5092129;27;19912;-72
2024/02/24 11:44:12;;;;;;;;;;;;;;;;;;5090365;28;19912;-72
2024/02/24 11:46:39;;;;;;;;;;;;;;;;;;5089543;28;20284;-72
2024/02/24 11:49:05;;;;;;;;;;;;;;;;;;5091525;28;19915;-71
2024/02/24 11:51:31;;;;;;;;;;;;;;;;;;5091167;28;19952;-71
2024/02/24 11:53:57;;;;;;;;;;;;;;;;;;5091018;28;20387;-71
2024/02/24 11:56:25;;;;;;;;;;;;;;;;;;5091099;28;20049;-72
2024/02/24 11:58:51;;;;;;;;;;;;;;;;;;5090951;28;20306;-70
2024/02/24 12:02:33;;;;;;;;;;;;;;;;;;5092064;28;20269;-70
2024/02/24 12:04:59;;;;;;;;;;;;;;;;;;5091333;28;20018;-72
2024/02/24 12:14:00;;;;;;;;;;;;;;;;;;5090909;27;19916;-71
2024/02/24 12:16:27;;;;;;;;;;;;;;;;;;5091274;28;19998;-71
2024/02/24 12:18:53;;;;;;;;;;;;;;;;;;5091236;28;19962;-71
2024/02/24 12:21:19;;;;;;;;;;;;;;;;;;5090878;28;20322;-71
2024/02/24 12:23:45;;;;;;;;;;;;;;;;;;5091182;28;19908;-71
2024/02/24 12:26:11;;;;;;;;;;;;;;;;;;5090930;28;19909;-71
2024/02/24 12:28:39;;;;;;;;;;;;;;;;;;5090739;28;19908;-71
2024/02/24 12:32:18;;;;;;;;;;;;;;;;;;5091998;27;20269;-72
2024/02/24 12:34:44;;;;;;;;;;;;;;;;;;5090080;28;19912;-70
2024/02/24 12:37:10;;;;;;;;;;;;;;;;;;5090834;28;19915;-71
2024/02/24 12:39:36;;;;;;;;;;;;;;;;;;5091174;28;20026;-70
2024/02/24 12:42:02;;;;;;;;;;;;;;;;;;5090773;28;19920;-71
2024/02/24 12:44:28;;;;;;;;;;;;;;;;;;5091168;28;19915;-70
2024/02/24 12:49:08;;;;;;;;;;;;;;;;;;5071145;28;19912;-72
2024/02/24 12:51:46;;;;;;;;;;;;;;;;;;5173946;27;19915;-70
2024/02/24 12:54:12;;;;;;;;;;;;;;;;;;5173709;27;19918;-70
2024/02/24 12:56:38;;;;;;;;;;;;;;;;;;5173185;27;19907;-70
2024/02/24 12:59:04;;;;;;;;;;;;;;;;;;5154912;27;19911;-71
2024/02/24 13:01:30;;;;;;;;;;;;;;;;;;5173516;27;19907;-71
2024/02/24 13:03:56;;;;;;;;;;;;;;;;;;5173025;27;19935;-71
2024/02/24 13:06:22;;;;;;;;;;;;;;;;;;5173972;27;20374;-71
2024/02/24 13:08:48;;;;;;;;;;;;;;;;;;5173407;27;20068;-70
2024/02/24 13:11:14;;;;;;;;;;;;;;;;;;5172987;27;19919;-73
2024/02/24 13:13:40;;;;;;;;;;;;;;;;;;5173510;27;19907;-71
2024/02/24 13:16:05;;;;;;;;;;;;;;;;;;5173407;27;19922;-71
2024/02/24 13:18:44;;;;;;;;;;;;;;;;;;5091217;27;19923;-70
2024/02/24 13:21:10;;;;;;;;;;;;;;;;;;5091376;28;19912;-71
2024/02/24 13:25:05;;;;;;;;;;;;;;;;;;5090979;27;19916;-70
2024/02/24 13:27:31;;;;;;;;;;;;;;;;;;5091319;28;20003;-70
2024/02/24 13:32:10;;;;;;;;;;;;;;;;;;5091023;27;19913;-70
2024/02/24 13:34:36;;;;;;;;;;;;;;;;;;5091347;28;19919;-71
2024/02/24 13:37:02;;;;;;;;;;;;;;;;;;5091185;28;19909;-70
2024/02/24 13:40:09;;;;;;;;;;;;;;;;;;5090927;27;19922;-71
2024/02/24 13:42:35;;;;;;;;;;;;;;;;;;5091723;28;19954;-70
2024/02/24 13:45:01;;;;;;;;;;;;;;;;;;5091220;28;20284;-70
2024/02/24 13:47:27;;;;;;;;;;;;;;;;;;5089496;28;19916;-70
2024/02/24 13:49:53;;;;;;;;;;;;;;;;;;5091082;28;19915;-70
2024/02/24 13:52:19;;;;;;;;;;;;;;;;;;5092532;28;19951;-71
2024/02/24 13:54:45;;;;;;;;;;;;;;;;;;5090686;28;19954;-70
2024/02/24 13:57:11;;;;;;;;;;;;;;;;;;5091402;28;19912;-71
2024/02/24 13:59:37;;;;;;;;;;;;;;;;;;5090779;28;19927;-71
2024/02/24 14:02:03;;;;;;;;;;;;;;;;;;5090970;28;19953;-71
2024/02/24 14:04:29;;;;;;;;;;;;;;;;;;5091023;28;19908;-71
2024/02/24 14:06:55;;;;;;;;;;;;;;;;;;5090547;28;19909;-71
2024/02/24 14:09:21;;;;;;;;;;;;;;;;;;5089533;28;19908;-71
2024/02/24 14:11:47;;;;;;;;;;;;;;;;;;5090938;28;19916;-71
2024/02/24 14:14:13;;;;;;;;;;;;;;;;;;5090411;28;20399;-71
2024/02/24 14:16:43;;;;;;;;;;;;;;;;;;5090674;28;19908;-71
2024/02/24 14:19:09;;;;;;;;;;;;;;;;;;5090700;28;19978;-72
2024/02/24 14:21:35;;;;;;;;;;;;;;;;;;5090376;28;19940;-73
2024/02/24 14:24:03;;;;;;;;;;;;;;;;;;5090645;28;19962;-71
2024/02/24 14:26:29;;;;;;;;;;;;;;;;;;5090586;28;19908;-71
2024/02/24 14:28:55;;;;;;;;;;;;;;;;;;5090083;28;19954;-71
2024/02/24 14:31:22;;;;;;;;;;;;;;;;;;5090449;28;19999;-70
2024/02/24 14:33:48;;;;;;;;;;;;;;;;;;5089066;28;20311;-70
2024/02/24 14:36:14;;;;;;;;;;;;;;;;;;5089942;28;19915;-70
2024/02/24 14:38:40;;;;;;;;;;;;;;;;;;5098627;28;19960;-72
2024/02/24 14:41:06;;;;;;;;;;;;;;;;;;5110577;28;20284;-70
2024/02/24 14:43:32;;;;;;;;;;;;;;;;;;5110115;28;19968;-71
2024/02/24 14:45:58;;;;;;;;;;;;;;;;;;5110462;28;19915;-72
2024/02/24 14:48:24;;;;;;;;;;;;;;;;;;5110467;28;19912;-72
2024/02/24 14:50:50;;;;;;;;;;;;;;;;;;5081750;28;20379;-71
2024/02/24 14:53:16;;;;;;;;;;;;;;;;;;5096739;28;19991;-72
2024/02/24 14:55:42;;;;;;;;;;;;;;;;;;5096484;28;19948;-72
2024/02/24 14:58:08;;;;;;;;;;;;;;;;;;5096786;28;19912;-72
2024/02/24 15:00:34;;;;;;;;;;;;;;;;;;5096625;28;19942;-72
2024/02/24 15:03:00;;;;;;;;;;;;;;;;;;5078057;28;19934;-72
2024/02/24 15:05:26;;;;;;;;;;;;;;;;;;5078368;28;20386;-72
2024/02/24 15:07:53;;;;;;;;;;;;;;;;;;5078400;28;19963;-71
2024/02/24 15:10:20;;;;;;;;;;;;;;;;;;5096025;28;19915;-71
2024/02/24 15:12:46;;;;;;;;;;;;;;;;;;5096638;28;19908;-71
2024/02/24 15:15:12;;;;;;;;;;;;;;;;;;5096411;28;19915;-71
2024/02/24 15:17:38;;;;;;;;;;;;;;;;;;5077720;28;20315;-71
2024/02/24 15:20:04;;;;;;;;;;;;;;;;;;5078081;28;19920;-71
2024/02/24 15:22:30;;;;;;;;;;;;;;;;;;5096195;28;19961;-71
2024/02/24 15:24:56;;;;;;;;;;;;;;;;;;5095747;28;19998;-71
2024/02/24 15:27:22;;;;;;;;;;;;;;;;;;5078083;28;19916;-71
2024/02/24 15:29:48;;;;;;;;;;;;;;;;;;5078282;28;20376;-71
2024/02/24 15:32:14;;;;;;;;;;;;;;;;;;5095654;28;20299;-71
2024/02/24 15:34:40;;;;;;;;;;;;;;;;;;5096056;28;19934;-71
2024/02/24 15:37:05;;;;;;;;;;;;;;;;;;5096251;28;20363;-71
2024/02/24 15:39:31;;;;;;;;;;;;;;;;;;5095209;28;20299;-72
2024/02/24 15:41:57;;;;;;;;;;;;;;;;;;5095929;28;19919;-71
2024/02/24 15:44:23;;;;;;;;;;;;;;;;;;5095792;28;19913;-71
2024/02/24 15:46:52;;;;;;;;;;;;;;;;;;5095444;28;20375;-72
2024/02/24 15:49:18;;;;;;;;;;;;;;;;;;5096041;28;19908;-72
2024/02/24 15:51:44;;;;;;;;;;;;;;;;;;5095728;28;19915;-71
2024/02/24 15:54:10;;;;;;;;;;;;;;;;;;5095214;28;20356;-71
2024/02/24 15:56:36;;;;;;;;;;;;;;;;;;5095533;28;20287;-72
2024/02/24 15:59:02;;;;;;;;;;;;;;;;;;5094901;28;19967;-71
2024/02/24 16:01:28;;;;;;;;;;;;;;;;;;5094598;28;19909;-71
2024/02/24 16:03:54;;;;;;;;;;;;;;;;;;5077134;28;19998;-72
2024/02/24 16:06:23;;;;;;;;;;;;;;;;;;5076837;28;19915;-71
2024/02/24 16:08:51;;;;;;;;;;;;;;;;;;5095379;28;19908;-72
2024/02/24 16:11:18;;;;;;;;;;;;;;;;;;5077095;28;20284;-72
2024/02/24 16:13:44;;;;;;;;;;;;;;;;;;5094811;28;19908;-72
2024/02/24 16:16:10;;;;;;;;;;;;;;;;;;5077083;28;19914;-72
2024/02/24 16:18:40;;;;;;;;;;;;;;;;;;5076916;28;20376;-71
2024/02/24 16:21:07;;;;;;;;;;;;;;;;;;5076553;28;19915;-71
2024/02/24 16:23:33;;;;;;;;;;;;;;;;;;5095017;28;19912;-72
2024/02/24 16:25:59;;;;;;;;;;;;;;;;;;5095008;28;19908;-72
2024/02/24 16:28:25;;;;;;;;;;;;;;;;;;5094436;28;19908;-72
2024/02/24 16:30:51;;;;;;;;;;;;;;;;;;5094875;28;19931;-72
2024/02/24 16:33:17;;;;;;;;;;;;;;;;;;5094979;28;20045;-71
2024/02/24 16:35:43;;;;;;;;;;;;;;;;;;5094430;28;19912;-72
2024/02/24 16:38:09;;;;;;;;;;;;;;;;;;5094460;28;19920;-72
2024/02/24 16:40:35;;;;;;;;;;;;;;;;;;5094741;28;19943;-72
2024/02/24 16:43:01;;;;;;;;;;;;;;;;;;5094294;28;20041;-71
2024/02/24 16:45:27;;;;;;;;;;;;;;;;;;5094602;28;19938;-71
2024/02/24 16:47:53;;;;;;;;;;;;;;;;;;5094574;28;20421;-71
2024/02/24 16:50:19;;;;;;;;;;;;;;;;;;5094135;28;19908;-71
2024/02/24 16:52:45;;;;;;;;;;;;;;;;;;5094674;28;20268;-71
2024/02/24 16:55:12;;;;;;;;;;;;;;;;;;5094421;28;19908;-71
2024/02/24 16:57:38;;;;;;;;;;;;;;;;;;5094731;28;19908;-71
2024/02/24 17:00:04;;;;;;;;;;;;;;;;;;5094286;28;19916;-71
2024/02/24 17:02:30;;;;;;;;;;;;;;;;;;5093953;28;19908;-71